createdAt,value
2018-04-07T00:01:45.039Z,100403.41
2018-04-07T00:04:14.171Z,100398.17
2018-04-07T00:06:43.277Z,100396.80
2018-04-07T00:09:12.405Z,100404.58
2018-04-07T00:11:42.342Z,100398.02
2018-04-07T00:14:11.449Z,100389.67
2018-04-07T00:16:40.565Z,100398.23
2018-04-07T00:19:09.677Z,100395.97
2018-04-07T00:21:38.783Z,100397.94
2018-04-07T00:24:07.934Z,100398.00
2018-04-07T00:26:37.824Z,100393.85
2018-04-07T00:29:06.946Z,100397.72
2018-04-07T00:31:36.068Z,100403.94
2018-04-07T00:34:05.183Z,100398.23
2018-04-07T00:36:34.305Z,100390.41
2018-04-07T00:39:04.197Z,100395.45
2018-04-07T00:41:33.307Z,100397.40
2018-04-07T00:44:02.412Z,100385.52
2018-04-07T00:46:32.307Z,100388.63
2018-04-07T00:49:01.406Z,100384.72
2018-04-07T00:51:30.555Z,100382.25
2018-04-07T00:53:59.633Z,100370.48
2018-04-07T00:56:29.530Z,100375.20
2018-04-07T00:58:58.643Z,100371.45
2018-04-07T01:01:27.777Z,100371.48
2018-04-07T01:03:56.886Z,100376.10
2018-04-07T01:06:26.023Z,100374.05
2018-04-07T01:08:55.891Z,100378.12
2018-04-07T01:11:25.021Z,100372.91
2018-04-07T01:13:54.886Z,100368.73
2018-04-07T01:16:23.999Z,100365.06
2018-04-07T01:18:53.125Z,100358.91
2018-04-07T01:21:22.990Z,100355.69
2018-04-07T01:23:52.110Z,100351.29
2018-04-07T01:26:22.000Z,100353.07
2018-04-07T01:28:51.116Z,100349.73
2018-04-07T01:31:20.210Z,100347.62
2018-04-07T01:33:49.334Z,100340.21
2018-04-07T01:36:19.217Z,100339.66
2018-04-07T01:38:48.766Z,100333.34
2018-04-07T01:41:18.623Z,100329.38
2018-04-07T01:43:48.742Z,100329.53
2018-04-07T01:46:17.865Z,100326.67
2018-04-07T01:48:46.975Z,100326.53
2018-04-07T01:51:16.868Z,100320.36
2018-04-07T01:53:45.987Z,100322.45
2018-04-07T01:56:15.085Z,100316.67
2018-04-07T01:58:44.969Z,100317.83
2018-04-07T02:01:14.086Z,100315.83
2018-04-07T02:03:43.187Z,100317.55
2018-04-07T02:06:12.319Z,100323.77
2018-04-07T02:08:41.429Z,100314.27
2018-04-07T02:11:10.545Z,100309.30
2018-04-07T02:13:39.657Z,100311.13
2018-04-07T02:16:08.784Z,100319.01
2018-04-07T02:18:37.879Z,100320.80
2018-04-07T02:21:07.766Z,100326.59
2018-04-07T02:23:36.878Z,100327.58
2018-04-07T02:26:06.771Z,100334.83
2018-04-07T02:28:36.633Z,100346.15
2018-04-07T02:31:05.739Z,100337.45
2018-04-07T02:33:34.887Z,100338.52
2018-04-07T02:36:03.992Z,100343.02
2018-04-07T02:38:33.106Z,100340.55
2018-04-07T02:41:02.975Z,100334.33
2018-04-07T02:43:32.087Z,100330.77
2018-04-07T02:46:01.212Z,100340.91
2018-04-07T02:48:31.091Z,100338.34
2018-04-07T02:51:00.195Z,100330.95
2018-04-07T02:53:29.309Z,100327.47
2018-04-07T02:55:58.408Z,100331.89
2018-04-07T02:58:28.293Z,100333.31
2018-04-07T03:00:57.385Z,100329.85
2018-04-07T03:03:26.491Z,100339.59
2018-04-07T03:05:55.608Z,100343.66
2018-04-07T03:08:25.498Z,100342.00
2018-04-07T03:10:54.601Z,100338.11
2018-04-07T03:13:23.742Z,100339.16
2018-04-07T03:15:52.848Z,100333.69
2018-04-07T03:18:21.949Z,100328.77
2018-04-07T03:20:51.065Z,100330.18
2018-04-07T03:23:20.222Z,100325.00
2018-04-07T03:25:49.317Z,100326.77
2018-04-07T03:28:19.185Z,100325.78
2018-04-07T03:30:48.951Z,100326.27
2018-04-07T03:33:18.838Z,100324.48
2018-04-07T03:35:48.950Z,100325.53
2018-04-07T03:38:18.059Z,100338.14
2018-04-07T03:40:47.180Z,100343.75
2018-04-07T03:43:16.283Z,100350.33
2018-04-07T03:45:45.412Z,100351.16
2018-04-07T03:48:14.494Z,100349.23
2018-04-07T03:50:43.608Z,100353.17
2018-04-07T03:53:12.724Z,100353.67
2018-04-07T03:55:41.861Z,100348.94
2018-04-07T03:58:10.958Z,100357.11
2018-04-07T04:00:40.091Z,100355.81
2018-04-07T04:03:09.223Z,100357.33
2018-04-07T04:05:39.114Z,100363.60
2018-04-07T04:08:08.207Z,100358.98
2018-04-07T04:10:37.317Z,100353.91
2018-04-07T04:13:07.208Z,100352.41
2018-04-07T04:15:36.294Z,100353.31
2018-04-07T04:18:05.419Z,100350.02
2018-04-07T04:20:35.302Z,100347.22
2018-04-07T04:23:04.408Z,100348.43
2018-04-07T04:25:33.529Z,100345.16
2018-04-07T04:28:02.661Z,100344.25
2018-04-07T04:30:31.750Z,100344.17
2018-04-07T04:33:00.878Z,100336.24
2018-04-07T04:35:29.974Z,100348.64
2018-04-07T04:37:59.098Z,100347.02
2018-04-07T04:40:28.980Z,100351.88
2018-04-07T04:42:58.853Z,100353.98
2018-04-07T04:45:28.719Z,100354.55
2018-04-07T04:47:57.822Z,100354.97
2018-04-07T04:50:26.946Z,100363.69
2018-04-07T04:52:56.065Z,100367.30
2018-04-07T04:55:25.947Z,100365.40
2018-04-07T04:57:55.048Z,100363.48
2018-04-07T05:00:24.168Z,100366.58
2018-04-07T05:02:54.065Z,100367.55
2018-04-07T05:05:23.183Z,100358.55
2018-04-07T05:07:53.040Z,100362.18
2018-04-07T05:10:22.148Z,100361.28
2018-04-07T05:12:51.258Z,100360.86
2018-04-07T05:15:20.377Z,100361.46
2018-04-07T05:17:49.471Z,100359.63
2018-04-07T05:20:19.359Z,100350.20
2018-04-07T05:22:49.208Z,100349.60
2018-04-07T05:25:19.079Z,100352.00
2018-04-07T05:27:49.186Z,100349.78
2018-04-07T05:30:18.307Z,100360.23
2018-04-07T05:32:47.424Z,100360.98
2018-04-07T05:35:17.287Z,100368.18
2018-04-07T05:37:46.410Z,100361.97
2018-04-07T05:40:15.523Z,100365.14
2018-04-07T05:42:44.641Z,100374.41
2018-04-07T05:45:13.824Z,100377.20
2018-04-07T05:47:43.723Z,100375.89
2018-04-07T05:50:12.821Z,100386.86
2018-04-07T05:52:41.958Z,100386.04
2018-04-07T05:55:11.052Z,100397.01
2018-04-07T05:57:40.176Z,100393.80
2018-04-07T06:00:09.282Z,100398.84
2018-04-07T06:02:38.433Z,100394.41
2018-04-07T06:05:08.286Z,100395.63
2018-04-07T06:07:37.396Z,100384.10
2018-04-07T06:10:06.533Z,100377.39
2018-04-07T06:12:36.390Z,100376.66
2018-04-07T06:15:05.516Z,100377.97
2018-04-07T06:17:34.644Z,100373.17
2018-04-07T06:20:04.526Z,100379.18
2018-04-07T06:22:33.629Z,100380.85
2018-04-07T06:25:02.758Z,100381.15
2018-04-07T06:27:31.856Z,100383.78
2018-04-07T06:30:00.995Z,100383.03
2018-04-07T06:32:30.118Z,100388.34
2018-04-07T06:35:00.020Z,100387.95
2018-04-07T06:40:09.306Z,100388.89
2018-04-07T06:42:38.437Z,100387.22
2018-04-07T06:45:08.363Z,100383.20
2018-04-07T06:47:37.466Z,100385.27
2018-04-07T06:50:07.390Z,100383.05
2018-04-07T06:52:37.267Z,100383.84
2018-04-07T06:55:06.445Z,100386.73
2018-04-07T06:57:36.303Z,100379.44
2018-04-07T07:00:06.224Z,100381.18
2018-04-07T07:02:36.109Z,100387.27
2018-04-07T07:05:05.243Z,100387.88
2018-04-07T07:07:35.124Z,100391.41
2018-04-07T07:10:04.264Z,100393.71
2018-04-07T07:12:33.384Z,100393.90
2018-04-07T07:15:02.510Z,100399.08
2018-04-07T07:17:32.577Z,100397.91
2018-04-07T07:20:01.699Z,100392.95
2018-04-07T07:22:30.828Z,100389.06
2018-04-07T07:24:59.947Z,100387.25
2018-04-07T07:27:29.093Z,100387.73
2018-04-07T07:29:58.213Z,100382.97
2018-04-07T07:32:28.110Z,100380.73
2018-04-07T07:34:57.233Z,100383.59
2018-04-07T07:37:27.149Z,100380.93
2018-04-07T07:39:57.598Z,100380.34
2018-04-07T07:42:26.728Z,100381.62
2018-04-07T07:44:55.841Z,100389.48
2018-04-07T07:47:25.742Z,100386.82
2018-04-07T07:49:54.875Z,100386.81
2018-04-07T07:52:23.998Z,100386.06
2018-04-07T07:54:53.124Z,100375.91
2018-04-07T07:57:22.249Z,100380.55
2018-04-07T07:59:51.398Z,100383.40
2018-04-07T08:02:20.470Z,100373.16
2018-04-07T08:04:49.608Z,100383.20
2018-04-07T08:07:18.718Z,100380.79
2018-04-07T08:09:49.864Z,100378.38
2018-04-07T08:12:19.741Z,100381.19
2018-04-07T08:14:50.289Z,100381.70
2018-04-07T08:17:19.412Z,100386.61
2018-04-07T08:19:49.480Z,100391.00
2018-04-07T08:22:18.609Z,100390.83
2018-04-07T08:24:49.762Z,100384.16
2018-04-07T08:27:18.898Z,100389.18
2018-04-07T08:29:48.029Z,100390.20
2018-04-07T08:32:18.013Z,100394.55
2018-04-07T08:34:47.076Z,100394.86
2018-04-07T08:37:16.228Z,100400.58
2018-04-07T08:39:45.326Z,100404.09
2018-04-07T08:42:15.252Z,100405.88
2018-04-07T08:44:45.116Z,100406.34
2018-04-07T08:47:14.328Z,100407.52
2018-04-07T08:49:43.481Z,100413.17
2018-04-07T08:52:12.618Z,100410.05
2018-04-07T08:54:41.741Z,100412.72
2018-04-07T08:57:11.631Z,100410.15
2018-04-07T08:59:40.777Z,100416.11
2018-04-07T09:02:09.912Z,100415.81
2018-04-07T09:04:39.011Z,100412.84
2018-04-07T09:07:08.135Z,100414.17
2018-04-07T09:09:37.263Z,100406.42
2018-04-07T09:12:06.383Z,100412.13
2018-04-07T09:14:35.527Z,100408.77
2018-04-07T09:17:04.656Z,100405.76
2018-04-07T09:19:33.783Z,100404.31
2018-04-07T09:22:02.926Z,100402.34
2018-04-07T09:24:32.052Z,100403.86
2018-04-07T09:27:01.166Z,100403.41
2018-04-07T09:29:30.316Z,100393.71
2018-04-07T09:31:59.422Z,100398.67
2018-04-07T09:34:28.555Z,100399.00
2018-04-07T09:36:58.442Z,100390.56
2018-04-07T09:39:27.570Z,100391.30
2018-04-07T09:41:56.675Z,100391.85
2018-04-07T09:44:25.803Z,100391.77
2018-04-07T09:46:54.922Z,100393.99
2018-04-07T09:49:24.063Z,100390.39
2018-04-07T09:51:53.195Z,100380.73
2018-04-07T09:54:22.309Z,100382.77
2018-04-07T09:56:51.447Z,100381.15
2018-04-07T09:59:20.575Z,100377.92
2018-04-07T10:01:50.523Z,100371.45
2018-04-07T10:04:20.427Z,100366.79
2018-04-07T10:06:50.682Z,100366.31
2018-04-07T10:09:20.554Z,100358.02
2018-04-07T10:11:49.747Z,100358.69
2018-04-07T10:14:18.860Z,100347.03
2018-04-07T10:16:50.005Z,100350.19
2018-04-07T10:19:19.876Z,100348.23
2018-04-07T10:21:50.555Z,100350.04
2018-04-07T10:24:20.460Z,100343.44
2018-04-07T10:26:49.759Z,100345.40
2018-04-07T10:29:18.878Z,100337.89
2018-04-07T10:31:48.022Z,100337.56
2018-04-07T10:34:17.161Z,100336.34
2018-04-07T10:36:48.096Z,100335.45
2018-04-07T10:39:18.020Z,100331.59
2018-04-07T10:41:47.117Z,100326.69
2018-04-07T10:44:16.254Z,100313.28
2018-04-07T10:46:45.381Z,100311.16
2018-04-07T10:49:14.545Z,100313.16
2018-04-07T10:51:43.610Z,100305.33
2018-04-07T10:54:12.766Z,100310.77
2018-04-07T10:56:42.678Z,100304.57
2018-04-07T10:59:11.790Z,100297.62
2018-04-07T11:01:40.918Z,100296.39
2018-04-07T11:04:10.080Z,100304.53
2018-04-07T11:06:39.953Z,100294.58
2018-04-07T11:09:09.096Z,100293.95
2018-04-07T11:11:38.198Z,100291.74
2018-04-07T11:14:07.346Z,100284.82
2018-04-07T11:16:36.454Z,100279.59
2018-04-07T11:19:05.623Z,100279.88
2018-04-07T11:21:34.734Z,100272.84
2018-04-07T11:24:04.643Z,100274.55
2018-04-07T11:26:34.543Z,100271.37
2018-04-07T11:29:03.679Z,100276.41
2018-04-07T11:31:33.582Z,100272.38
2018-04-07T11:34:03.480Z,100267.59
2018-04-07T11:36:32.583Z,100259.34
2018-04-07T11:39:01.718Z,100256.19
2018-04-07T11:41:30.848Z,100244.66
2018-04-07T11:43:59.985Z,100246.75
2018-04-07T11:46:29.143Z,100242.67
2018-04-07T11:48:58.256Z,100244.59
2018-04-07T11:51:28.190Z,100237.85
2018-04-07T11:53:57.322Z,100229.20
2018-04-07T11:56:26.463Z,100222.33
2018-04-07T11:58:56.386Z,100235.93
2018-04-07T12:01:26.299Z,100219.34
2018-04-07T12:03:55.418Z,100223.41
2018-04-07T12:06:24.531Z,100218.22
2018-04-07T12:08:53.675Z,100216.61
2018-04-07T12:11:23.605Z,100206.27
2018-04-07T12:13:53.505Z,100202.59
2018-04-07T12:16:23.400Z,100201.88
2018-04-07T12:18:52.588Z,100195.46
2018-04-07T12:21:21.697Z,100185.99
2018-04-07T12:23:50.825Z,100187.91
2018-04-07T12:26:19.942Z,100182.76
2018-04-07T12:28:50.033Z,100184.33
2018-04-07T12:31:19.163Z,100181.00
2018-04-07T12:33:48.298Z,100173.42
2018-04-07T12:36:18.200Z,100168.33
2018-04-07T12:38:48.111Z,100157.23
2018-04-07T12:41:18.023Z,100154.88
2018-04-07T12:43:47.899Z,100153.18
2018-04-07T12:46:17.043Z,100151.00
2018-04-07T12:48:46.160Z,100145.61
2018-04-07T12:51:15.338Z,100141.34
2018-04-07T12:53:44.418Z,100140.67
2018-04-07T12:56:14.312Z,100142.63
2018-04-07T12:58:43.461Z,100144.36
2018-04-07T13:01:12.588Z,100129.57
2018-04-07T13:03:41.713Z,100135.06
2018-04-07T13:06:10.951Z,100134.23
2018-04-07T13:08:40.100Z,100123.03
2018-04-07T13:11:09.998Z,100124.32
2018-04-07T13:13:39.120Z,100118.88
2018-04-07T13:16:08.999Z,100111.06
2018-04-07T13:18:38.135Z,100109.41
2018-04-07T13:21:07.240Z,100098.97
2018-04-07T13:23:36.378Z,100099.80
2018-04-07T13:26:05.678Z,100096.61
2018-04-07T13:28:34.799Z,100095.05
2018-04-07T13:31:04.698Z,100090.52
2018-04-07T13:33:38.527Z,100084.52
2018-04-07T13:36:02.984Z,100080.78
2018-04-07T13:38:32.083Z,100082.44
2018-04-07T13:41:01.210Z,100080.47
2018-04-07T13:43:30.380Z,100070.77
2018-04-07T13:46:00.276Z,100067.45
2018-04-07T13:48:29.408Z,100051.44
2018-04-07T13:50:58.543Z,100050.86
2018-04-07T13:53:27.654Z,100055.39
2018-04-07T13:55:56.778Z,100054.41
2018-04-07T13:58:26.686Z,100046.77
2018-04-07T14:00:56.627Z,100045.89
2018-04-07T14:03:25.734Z,100038.20
2018-04-07T14:05:54.855Z,100030.27
2018-04-07T14:08:23.979Z,100031.23
2018-04-07T14:10:53.111Z,100022.00
2018-04-07T14:13:22.243Z,100021.45
2018-04-07T14:15:51.369Z,100015.62
2018-04-07T14:18:21.266Z,100010.91
2018-04-07T14:20:50.412Z,100013.20
2018-04-07T14:23:19.577Z,100015.62
2018-04-07T14:25:48.707Z,100004.37
2018-04-07T14:28:17.848Z,100011.84
2018-04-07T14:30:46.965Z,100014.00
2018-04-07T14:33:16.867Z,100008.88
2018-04-07T14:35:46.732Z,100004.33
2018-04-07T14:38:16.632Z,99994.53
2018-04-07T14:40:45.762Z,99990.06
2018-04-07T14:43:14.891Z,99994.43
2018-04-07T14:45:44.796Z,99991.66
2018-04-07T14:48:14.678Z,99987.66
2018-04-07T14:50:43.790Z,99982.58
2018-04-07T14:53:13.688Z,99976.70
2018-04-07T14:55:42.791Z,99977.84
2018-04-07T14:58:12.687Z,99969.55
2018-04-07T15:00:41.792Z,99973.78
2018-04-07T15:03:10.943Z,99971.92
2018-04-07T15:05:40.084Z,99963.60
2018-04-07T15:08:09.982Z,99949.38
2018-04-07T15:10:39.098Z,99945.49
2018-04-07T15:13:08.220Z,99948.03
2018-04-07T15:15:38.086Z,99937.19
2018-04-07T15:18:07.207Z,99931.43
2018-04-07T15:20:37.082Z,99933.88
2018-04-07T15:23:06.226Z,99926.01
2018-04-07T15:25:36.130Z,99917.61
2018-04-07T15:28:06.063Z,99921.48
2018-04-07T15:30:35.174Z,99915.95
2018-04-07T15:33:04.316Z,99914.78
2018-04-07T15:35:33.430Z,99912.30
2018-04-07T15:38:03.293Z,99913.07
2018-04-07T15:40:32.405Z,99902.25
2018-04-07T15:43:01.531Z,99904.78
2018-04-07T15:45:31.415Z,99901.79
2018-04-07T15:48:00.514Z,99900.91
2018-04-07T15:50:29.636Z,99898.26
2018-04-07T15:52:59.494Z,99899.41
2018-04-07T15:55:28.634Z,99896.72
2018-04-07T15:57:58.504Z,99895.72
2018-04-07T16:00:27.628Z,99891.21
2018-04-07T16:02:56.750Z,99890.90
2018-04-07T16:05:25.866Z,99895.01
2018-04-07T16:07:54.954Z,99890.83
2018-04-07T16:10:24.090Z,99892.66
2018-04-07T16:12:53.201Z,99888.99
2018-04-07T16:15:22.304Z,99888.33
2018-04-07T16:17:51.440Z,99886.59
2018-04-07T16:20:20.595Z,99884.34
2018-04-07T16:22:51.394Z,99886.55
2018-04-07T16:25:20.541Z,99874.81
2018-04-07T16:27:51.422Z,99877.83
2018-04-07T16:30:20.564Z,99884.14
2018-04-07T16:32:50.642Z,99878.04
2018-04-07T16:35:19.817Z,99877.07
2018-04-07T16:37:48.910Z,99881.47
2018-04-07T16:40:18.026Z,99873.36
2018-04-07T16:42:47.137Z,99875.21
2018-04-07T16:45:16.286Z,99872.21
2018-04-07T16:47:45.402Z,99875.14
2018-04-07T16:50:14.526Z,99877.20
2018-04-07T16:52:44.423Z,99878.17
2018-04-07T16:55:13.559Z,99875.52
2018-04-07T16:57:42.651Z,99884.26
2018-04-07T17:00:11.760Z,99881.21
2018-04-07T17:02:40.894Z,99875.20
2018-04-07T17:05:10.020Z,99876.04
2018-04-07T17:07:39.898Z,99878.06
2018-04-07T17:10:09.019Z,99884.06
2018-04-07T17:12:38.128Z,99887.91
2018-04-07T17:15:07.264Z,99888.22
2018-04-07T17:17:36.371Z,99884.02
2018-04-07T17:20:05.502Z,99884.26
2018-04-07T17:22:35.389Z,99879.11
2018-04-07T17:25:04.497Z,99886.40
2018-04-07T17:27:34.396Z,99881.40
2018-04-07T17:30:03.494Z,99875.57
2018-04-07T17:32:33.400Z,99876.48
2018-04-07T17:35:02.519Z,99877.14
2018-04-07T17:37:33.163Z,99882.87
2018-04-07T17:40:02.304Z,99874.69
2018-04-07T17:42:32.209Z,99878.41
2018-04-07T17:45:01.438Z,99878.41
2018-04-07T17:47:30.548Z,99878.61
2018-04-07T17:50:00.431Z,99874.17
2018-04-07T17:52:29.561Z,99871.44
2018-04-07T17:54:58.706Z,99868.05
2018-04-07T17:57:27.840Z,99866.87
2018-04-07T17:59:56.944Z,99872.28
2018-04-07T18:02:26.845Z,99883.00
2018-04-07T18:04:56.770Z,99879.30
2018-04-07T18:07:25.858Z,99882.27
2018-04-07T18:09:55.757Z,99881.24
2018-04-07T18:12:24.867Z,99879.41
2018-04-07T18:14:54.749Z,99879.74
2018-04-07T18:17:23.875Z,99882.45
2018-04-07T18:19:53.759Z,99882.64
2018-04-07T18:22:22.889Z,99887.86
2018-04-07T18:24:52.038Z,99889.01
2018-04-07T18:27:21.189Z,99894.36
2018-04-07T18:29:50.799Z,99903.64
2018-04-07T18:32:19.903Z,99901.91
2018-04-07T18:34:49.046Z,99902.39
2018-04-07T18:37:18.154Z,99908.52
2018-04-07T18:39:48.054Z,99908.89
2018-04-07T18:42:17.935Z,99908.13
2018-04-07T18:44:47.075Z,99913.73
2018-04-07T18:47:16.965Z,99915.16
2018-04-07T18:49:46.072Z,99921.39
2018-04-07T18:52:15.202Z,99923.34
2018-04-07T18:54:44.303Z,99927.30
2018-04-07T18:57:13.432Z,99934.57
2018-04-07T18:59:42.624Z,99937.56
2018-04-07T19:02:11.771Z,99940.53
2018-04-07T19:04:40.867Z,99941.28
2018-04-07T19:07:10.004Z,99939.91
2018-04-07T19:09:39.102Z,99936.75
2018-04-07T19:12:08.238Z,99936.98
2018-04-07T19:14:37.343Z,99937.58
2018-04-07T19:17:06.475Z,99935.28
2018-04-07T19:19:35.600Z,99932.73
2018-04-07T19:22:05.501Z,99934.08
2018-04-07T19:24:34.645Z,99937.87
2018-04-07T19:27:03.763Z,99936.52
2018-04-07T19:29:32.902Z,99937.75
2018-04-07T19:32:03.061Z,99940.69
2018-04-07T19:34:32.235Z,99937.48
2018-04-07T19:37:01.360Z,99934.01
2018-04-07T19:39:30.512Z,99939.97
2018-04-07T19:42:00.406Z,99936.39
2018-04-07T19:44:29.532Z,99946.42
2018-04-07T19:46:58.645Z,99946.16
2018-04-07T19:49:27.787Z,99948.48
2018-04-07T19:51:56.893Z,99952.50
2018-04-07T19:54:26.807Z,99956.14
2018-04-07T19:56:56.687Z,99956.17
2018-04-07T19:59:25.815Z,99957.34
2018-04-07T20:01:56.819Z,99956.30
2018-04-07T20:04:26.701Z,99956.63
2018-04-07T20:06:55.831Z,99954.84
2018-04-07T20:09:24.935Z,99956.86
2018-04-07T20:11:54.075Z,99957.30
2018-04-07T20:14:23.197Z,99954.86
2018-04-07T20:16:52.339Z,99955.39
2018-04-07T20:19:22.218Z,99950.31
2018-04-07T20:21:52.120Z,99947.98
2018-04-07T20:24:21.226Z,99951.77
2018-04-07T20:26:51.803Z,99944.62
2018-04-07T20:29:20.922Z,99946.17
2018-04-07T20:31:50.932Z,99944.94
2018-04-07T20:34:20.050Z,99940.92
2018-04-07T20:36:49.181Z,99937.82
2018-04-07T20:39:19.080Z,99937.55
2018-04-07T20:41:48.187Z,99933.81
2018-04-07T20:44:33.902Z,99928.14
2018-04-07T20:47:03.096Z,99931.36
2018-04-07T20:49:32.191Z,99940.02
2018-04-07T20:52:01.318Z,99936.98
2018-04-07T20:54:30.443Z,99936.19
2018-04-07T20:56:59.574Z,99939.66
2018-04-07T20:59:29.485Z,99927.72
2018-04-07T21:01:58.604Z,99928.44
2018-04-07T21:04:27.734Z,99931.69
2018-04-07T21:06:56.843Z,99933.69
2018-04-07T21:09:26.743Z,99936.16
2018-04-07T21:11:55.875Z,99933.57
2018-04-07T21:14:25.023Z,99935.33
2018-04-07T21:16:54.148Z,99934.19
2018-04-07T21:19:24.082Z,99937.43
2018-04-07T21:21:53.203Z,99938.53
2018-04-07T21:24:22.343Z,99934.48
2018-04-07T21:26:52.219Z,99936.24
2018-04-07T21:29:21.334Z,99929.98
2018-04-07T21:31:51.010Z,99926.84
2018-04-07T21:34:20.133Z,99932.52
2018-04-07T21:36:49.258Z,99927.64
2018-04-07T21:39:18.379Z,99926.13
2018-04-07T21:41:48.292Z,99922.67
2018-04-07T21:44:17.408Z,99926.14
2018-04-07T21:46:46.573Z,99930.20
2018-04-07T21:49:15.694Z,99927.75
2018-04-07T21:51:44.830Z,99927.81
2018-04-07T21:54:14.704Z,99929.74
2018-04-07T21:56:43.855Z,99930.00
2018-04-07T21:59:12.978Z,99927.99
2018-04-07T22:01:42.114Z,99922.08
2018-04-07T22:04:11.998Z,99935.20
2018-04-07T22:06:41.110Z,99920.97
2018-04-07T22:09:10.229Z,99923.88
2018-04-07T22:11:39.373Z,99931.55
2018-04-07T22:14:08.504Z,99933.14
2018-04-07T22:16:37.609Z,99929.15
2018-04-07T22:19:07.547Z,99929.28
2018-04-07T22:21:36.654Z,99924.58
2018-04-07T22:24:05.796Z,99924.27
2018-04-07T22:26:35.748Z,99918.70
2018-04-07T22:29:04.859Z,99918.80
2018-04-07T22:31:33.978Z,99921.08
2018-04-07T22:34:03.095Z,99914.63
2018-04-07T22:36:32.233Z,99919.50
2018-04-07T22:39:01.351Z,99922.09
2018-04-07T22:41:30.485Z,99918.35
2018-04-07T22:44:00.375Z,99924.11
2018-04-07T22:46:29.527Z,99920.44
2018-04-07T22:48:58.657Z,99922.52
2018-04-07T22:51:28.558Z,99924.44
2018-04-07T22:53:57.668Z,99926.67
2018-04-07T22:56:26.803Z,99930.77
2018-04-07T22:58:56.674Z,99923.52
2018-04-07T23:01:25.824Z,99921.66
2018-04-07T23:03:54.938Z,99924.95
2018-04-07T23:06:24.085Z,99917.73
2018-04-07T23:08:53.223Z,99923.41
2018-04-07T23:11:22.346Z,99928.22
2018-04-07T23:13:51.489Z,99921.77
2018-04-07T23:16:20.607Z,99922.11
2018-04-07T23:18:51.764Z,99919.22
2018-04-07T23:21:20.876Z,99923.30
2018-04-07T23:23:51.246Z,99915.14
2018-04-07T23:26:20.369Z,99915.91
2018-04-07T23:28:49.525Z,99915.03
2018-04-07T23:31:19.421Z,99912.39
2018-04-07T23:33:49.335Z,99907.53
2018-04-07T23:36:19.224Z,99902.89
2018-04-07T23:38:48.370Z,99903.52
2018-04-07T23:41:17.509Z,99901.30
2018-04-07T23:43:46.644Z,99906.22
2018-04-07T23:46:16.521Z,99901.41
2018-04-07T23:48:45.620Z,99903.32
2018-04-07T23:51:14.757Z,99903.32
2018-04-07T23:53:43.878Z,99896.66
2018-04-07T23:56:13.018Z,99908.38
2018-04-07T23:58:42.890Z,99903.20
